createdAt,value
2018-11-12T00:00:50.588Z,1007.27
2018-11-12T00:01:50.576Z,1007.25
2018-11-12T00:02:50.580Z,1007.21
2018-11-12T00:03:50.547Z,1007.24
2018-11-12T00:04:50.532Z,1007.32
2018-11-12T00:05:50.521Z,1007.32
2018-11-12T00:06:50.513Z,1007.32
2018-11-12T00:07:50.536Z,1007.28
2018-11-12T00:08:50.489Z,1007.34
2018-11-12T00:09:50.479Z,1007.26
2018-11-12T00:10:50.465Z,1007.28
2018-11-12T00:11:50.457Z,1007.27
2018-11-12T00:12:50.468Z,1007.27
2018-11-12T00:13:50.437Z,1007.27
2018-11-12T00:14:50.420Z,1007.29
2018-11-12T00:15:50.420Z,1007.31
2018-11-12T00:16:50.401Z,1007.29
2018-11-12T00:17:50.411Z,1007.32
2018-11-12T00:18:50.377Z,1007.34
2018-11-12T00:19:50.364Z,1007.33
2018-11-12T00:20:50.370Z,1007.40
2018-11-12T00:21:50.420Z,1007.41
2018-11-12T00:22:50.360Z,1007.44
2018-11-12T00:23:50.321Z,1007.48
2018-11-12T00:24:50.310Z,1007.51
2018-11-12T00:25:50.298Z,1007.59
2018-11-12T00:26:50.295Z,1007.57
2018-11-12T00:27:50.299Z,1007.53
2018-11-12T00:28:50.265Z,1007.45
2018-11-12T00:29:50.257Z,1007.46
2018-11-12T00:30:50.243Z,1007.41
2018-11-12T00:31:50.234Z,1007.39
2018-11-12T00:32:50.250Z,1007.38
2018-11-12T00:33:50.210Z,1007.35
2018-11-12T00:34:50.197Z,1007.34
2018-11-12T00:35:50.184Z,1007.46
2018-11-12T00:36:50.175Z,1007.40
2018-11-12T00:37:50.189Z,1007.42
2018-11-12T00:38:50.163Z,1007.45
2018-11-12T00:39:50.143Z,1007.46
2018-11-12T00:40:50.130Z,1007.46
2018-11-12T00:41:50.121Z,1007.46
2018-11-12T00:42:50.133Z,1007.49
2018-11-12T00:43:50.107Z,1007.50
2018-11-12T00:44:50.086Z,1007.44
2018-11-12T00:45:50.076Z,1007.53
2018-11-12T00:46:50.069Z,1007.53
2018-11-12T00:47:50.078Z,1007.55
2018-11-12T00:48:50.046Z,1007.57
2018-11-12T00:49:50.032Z,1007.60
2018-11-12T00:50:50.031Z,1007.49
2018-11-12T00:51:50.010Z,1007.49
2018-11-12T00:52:50.021Z,1007.49
2018-11-12T00:53:49.994Z,1007.52
2018-11-12T00:54:49.976Z,1007.49
2018-11-12T00:55:49.967Z,1007.52
2018-11-12T00:56:49.954Z,1007.53
2018-11-12T00:57:49.973Z,1007.51
2018-11-12T00:58:49.938Z,1007.51
2018-11-12T00:59:49.919Z,1007.49
2018-11-12T01:00:49.909Z,1007.50
2018-11-12T01:01:49.897Z,1007.49
2018-11-12T01:02:49.928Z,1007.48
2018-11-12T01:03:49.877Z,1007.41
2018-11-12T01:04:49.863Z,1007.45
2018-11-12T01:05:49.855Z,1007.43
2018-11-12T01:06:49.845Z,1007.51
2018-11-12T01:07:49.856Z,1007.50
2018-11-12T01:08:49.823Z,1007.49
2018-11-12T01:09:49.822Z,1007.51
2018-11-12T01:10:49.797Z,1007.53
2018-11-12T01:11:49.792Z,1007.53
2018-11-12T01:12:49.797Z,1007.52
2018-11-12T01:13:49.763Z,1007.51
2018-11-12T01:14:49.753Z,1007.56
2018-11-12T01:15:49.750Z,1007.56
2018-11-12T01:16:49.729Z,1007.57
2018-11-12T01:17:49.749Z,1007.57
2018-11-12T01:18:49.713Z,1007.57
2018-11-12T01:19:49.704Z,1007.60
2018-11-12T01:20:49.684Z,1007.59
2018-11-12T01:21:49.674Z,1007.62
2018-11-12T01:22:49.686Z,1007.64
2018-11-12T01:23:49.656Z,1007.62
2018-11-12T01:24:49.639Z,1007.66
2018-11-12T01:25:49.627Z,1007.71
2018-11-12T01:26:49.628Z,1007.71
2018-11-12T01:27:49.633Z,1007.71
2018-11-12T01:28:49.598Z,1007.69
2018-11-12T01:29:49.582Z,1007.59
2018-11-12T01:30:49.573Z,1007.64
2018-11-12T01:31:49.561Z,1007.59
2018-11-12T01:32:49.583Z,1007.62
2018-11-12T01:33:49.544Z,1007.62
2018-11-12T01:34:49.529Z,1007.59
2018-11-12T01:35:49.515Z,1007.51
2018-11-12T01:36:49.511Z,1007.45
2018-11-12T01:37:49.517Z,1007.42
2018-11-12T01:38:49.500Z,1007.43
2018-11-12T01:39:49.474Z,1007.38
2018-11-12T01:40:49.460Z,1007.43
2018-11-12T01:41:49.463Z,1007.41
2018-11-12T01:42:49.463Z,1007.44
2018-11-12T01:43:49.429Z,1007.43
2018-11-12T01:44:49.417Z,1007.42
2018-11-12T01:45:49.415Z,1007.40
2018-11-12T01:46:49.397Z,1007.39
2018-11-12T01:47:49.387Z,1007.39
2018-11-12T01:48:49.400Z,1007.42
2018-11-12T01:49:49.360Z,1007.43
2018-11-12T01:50:49.360Z,1007.40
2018-11-12T01:51:49.341Z,1007.56
2018-11-12T01:52:49.331Z,1007.60
2018-11-12T01:53:49.341Z,1007.62
2018-11-12T01:54:49.319Z,1007.68
2018-11-12T01:55:49.295Z,1007.77
2018-11-12T01:56:49.284Z,1007.75
2018-11-12T01:57:49.275Z,1007.68
2018-11-12T01:58:49.284Z,1007.63
2018-11-12T01:59:49.249Z,1007.61
2018-11-12T02:00:49.238Z,1007.61
2018-11-12T02:01:49.360Z,1007.50
2018-11-12T02:02:49.222Z,1007.51
2018-11-12T02:03:49.227Z,1007.55
2018-11-12T02:04:49.238Z,1007.57
2018-11-12T02:05:49.194Z,1007.53
2018-11-12T02:06:49.175Z,1007.55
2018-11-12T02:07:49.168Z,1007.50
2018-11-12T02:08:49.228Z,1007.48
2018-11-12T02:09:49.154Z,1007.45
2018-11-12T02:10:49.128Z,1007.43
2018-11-12T02:11:49.114Z,1007.40
2018-11-12T02:12:49.102Z,1007.42
2018-11-12T02:13:49.117Z,1007.40
2018-11-12T02:14:49.087Z,1007.43
2018-11-12T02:15:49.074Z,1007.44
2018-11-12T02:16:49.061Z,1007.49
2018-11-12T02:17:49.048Z,1007.41
2018-11-12T02:18:49.064Z,1007.47
2018-11-12T02:19:49.032Z,1007.48
2018-11-12T02:20:49.016Z,1007.45
2018-11-12T02:21:49.004Z,1007.46
2018-11-12T02:22:49.051Z,1007.44
2018-11-12T02:23:49.005Z,1007.41
2018-11-12T02:24:48.976Z,1007.45
2018-11-12T02:25:48.963Z,1007.49
2018-11-12T02:26:48.946Z,1007.49
2018-11-12T02:27:48.934Z,1007.51
2018-11-12T02:28:48.947Z,1007.51
2018-11-12T02:29:48.912Z,1007.42
2018-11-12T02:30:48.924Z,1007.42
2018-11-12T02:31:48.888Z,1007.34
2018-11-12T02:32:48.887Z,1007.38
2018-11-12T02:33:48.898Z,1007.36
2018-11-12T02:34:48.862Z,1007.33
2018-11-12T02:35:48.846Z,1007.34
2018-11-12T02:36:48.837Z,1007.34
2018-11-12T02:37:48.835Z,1007.32
2018-11-12T02:38:48.840Z,1007.28
2018-11-12T02:39:48.803Z,1007.29
2018-11-12T02:40:48.793Z,1007.27
2018-11-12T02:41:48.785Z,1007.29
2018-11-12T02:42:48.768Z,1007.31
2018-11-12T02:43:48.784Z,1007.32
2018-11-12T02:44:48.745Z,1007.36
2018-11-12T02:45:48.741Z,1007.35
2018-11-12T02:46:48.721Z,1007.37
2018-11-12T02:47:48.713Z,1007.29
2018-11-12T02:48:48.739Z,1007.31
2018-11-12T02:49:48.688Z,1007.34
2018-11-12T02:50:48.682Z,1007.34
2018-11-12T02:51:48.677Z,1007.31
2018-11-12T02:52:48.668Z,1007.28
2018-11-12T02:53:48.669Z,1007.19
2018-11-12T02:54:48.634Z,1007.20
2018-11-12T02:55:48.625Z,1007.26
2018-11-12T02:56:48.612Z,1007.28
2018-11-12T02:57:48.610Z,1007.29
2018-11-12T02:58:48.631Z,1007.35
2018-11-12T02:59:48.579Z,1007.33
2018-11-12T03:00:48.567Z,1007.34
2018-11-12T03:01:48.561Z,1007.28
2018-11-12T03:02:48.545Z,1007.28
2018-11-12T03:03:48.557Z,1007.26
2018-11-12T03:04:48.550Z,1007.29
2018-11-12T03:05:48.512Z,1007.26
2018-11-12T03:06:48.502Z,1007.32
2018-11-12T03:07:48.488Z,1007.22
2018-11-12T03:08:48.505Z,1007.16
2018-11-12T03:09:48.469Z,1007.13
2018-11-12T03:10:48.466Z,1007.15
2018-11-12T03:11:48.445Z,1007.13
2018-11-12T03:12:48.432Z,1007.18
2018-11-12T03:13:48.445Z,1007.20
2018-11-12T03:14:48.410Z,1007.21
2018-11-12T03:15:48.401Z,1007.24
2018-11-12T03:16:48.403Z,1007.18
2018-11-12T03:17:48.375Z,1007.14
2018-11-12T03:18:48.390Z,1007.11
2018-11-12T03:19:48.354Z,1007.14
2018-11-12T03:20:48.342Z,1007.14
2018-11-12T03:21:48.340Z,1007.15
2018-11-12T03:22:48.331Z,1007.14
2018-11-12T03:23:48.335Z,1007.07
2018-11-12T03:24:48.301Z,1007.14
2018-11-12T03:25:48.288Z,1007.18
2018-11-12T03:26:48.275Z,1007.21
2018-11-12T03:27:48.428Z,1007.22
2018-11-12T03:28:48.290Z,1007.11
2018-11-12T03:29:48.243Z,1007.03
2018-11-12T03:30:48.240Z,1007.03
2018-11-12T03:31:48.222Z,1007.11
2018-11-12T03:32:48.211Z,1007.14
2018-11-12T03:33:48.225Z,1007.12
2018-11-12T03:34:48.202Z,1007.10
2018-11-12T03:35:48.177Z,1007.00
2018-11-12T03:36:48.163Z,1006.98
2018-11-12T03:37:48.153Z,1006.97
2018-11-12T03:38:48.168Z,1006.98
2018-11-12T03:39:48.259Z,1007.00
2018-11-12T03:40:48.133Z,1007.02
2018-11-12T03:41:48.108Z,1007.00
2018-11-12T03:42:48.098Z,1007.02
2018-11-12T03:43:48.112Z,1007.03
2018-11-12T03:44:48.075Z,1007.07
2018-11-12T03:45:48.065Z,1007.12
2018-11-12T03:46:48.065Z,1007.14
2018-11-12T03:47:48.041Z,1007.12
2018-11-12T03:48:48.055Z,1007.12
2018-11-12T03:49:48.019Z,1007.15
2018-11-12T03:50:48.011Z,1007.12
2018-11-12T03:51:47.996Z,1007.11
2018-11-12T03:52:47.993Z,1007.06
2018-11-12T03:53:47.980Z,1006.98
2018-11-12T03:54:47.989Z,1006.91
2018-11-12T03:55:47.954Z,1006.93
2018-11-12T03:56:47.943Z,1006.90
2018-11-12T03:57:47.931Z,1006.88
2018-11-12T03:58:47.930Z,1006.89
2018-11-12T03:59:47.930Z,1006.89
2018-11-12T04:00:47.898Z,1006.76
2018-11-12T04:01:47.889Z,1006.76
2018-11-12T04:02:47.874Z,1006.69
2018-11-12T04:03:47.865Z,1006.73
2018-11-12T04:04:47.889Z,1006.72
2018-11-12T04:05:47.839Z,1006.67
2018-11-12T04:06:47.828Z,1006.74
2018-11-12T04:07:47.820Z,1006.67
2018-11-12T04:08:47.814Z,1006.67
2018-11-12T04:09:47.821Z,1006.70
2018-11-12T04:10:47.794Z,1006.68
2018-11-12T04:11:47.776Z,1006.70
2018-11-12T04:12:47.763Z,1006.67
2018-11-12T04:13:47.752Z,1006.63
2018-11-12T04:14:47.764Z,1006.65
2018-11-12T04:15:47.728Z,1006.65
2018-11-12T04:16:47.729Z,1006.69
2018-11-12T04:17:47.704Z,1006.63
2018-11-12T04:18:47.701Z,1006.63
2018-11-12T04:19:47.708Z,1006.61
2018-11-12T04:20:47.671Z,1006.61
2018-11-12T04:21:47.664Z,1006.57
2018-11-12T04:22:47.659Z,1006.62
2018-11-12T04:23:47.640Z,1006.57
2018-11-12T04:24:47.654Z,1006.60
2018-11-12T04:25:47.622Z,1006.63
2018-11-12T04:26:47.607Z,1006.65
2018-11-12T04:27:47.595Z,1006.58
2018-11-12T04:28:47.584Z,1006.60
2018-11-12T04:29:47.611Z,1006.60
2018-11-12T04:30:47.561Z,1006.55
2018-11-12T04:31:47.555Z,1006.54
2018-11-12T04:32:47.539Z,1006.52
2018-11-12T04:33:47.535Z,1006.55
2018-11-12T04:34:47.541Z,1006.59
2018-11-12T04:35:47.512Z,1006.56
2018-11-12T04:36:47.495Z,1006.60
2018-11-12T04:37:47.483Z,1006.48
2018-11-12T04:38:47.479Z,1006.43
2018-11-12T04:39:47.483Z,1006.36
2018-11-12T04:40:47.449Z,1006.38
2018-11-12T04:41:47.453Z,1006.42
2018-11-12T04:42:47.427Z,1006.39
2018-11-12T04:43:47.421Z,1006.42
2018-11-12T04:44:47.429Z,1006.41
2018-11-12T04:45:47.394Z,1006.35
2018-11-12T04:46:47.383Z,1006.39
2018-11-12T04:47:47.379Z,1006.35
2018-11-12T04:48:47.361Z,1006.36
2018-11-12T04:49:47.373Z,1006.44
2018-11-12T04:50:47.337Z,1006.48
2018-11-12T04:51:47.326Z,1006.52
2018-11-12T04:52:47.313Z,1006.55
2018-11-12T04:53:47.395Z,1006.54
2018-11-12T04:54:47.318Z,1006.55
2018-11-12T04:55:47.286Z,1006.57
2018-11-12T04:56:47.271Z,1006.63
2018-11-12T04:57:47.259Z,1006.63
2018-11-12T04:58:47.247Z,1006.63
2018-11-12T04:59:47.268Z,1006.60
2018-11-12T05:00:47.226Z,1006.62
2018-11-12T05:01:47.281Z,1006.56
2018-11-12T05:02:47.204Z,1006.54
2018-11-12T05:03:47.194Z,1006.55
2018-11-12T05:04:47.207Z,1006.55
2018-11-12T05:05:47.182Z,1006.56
2018-11-12T05:06:47.158Z,1006.60
2018-11-12T05:07:47.146Z,1006.60
2018-11-12T05:08:47.139Z,1006.60
2018-11-12T05:09:47.154Z,1006.63
2018-11-12T05:10:47.117Z,1006.59
2018-11-12T05:11:47.113Z,1006.66
2018-11-12T05:12:47.095Z,1006.69
2018-11-12T05:13:47.084Z,1006.69
2018-11-12T05:14:47.096Z,1006.68
2018-11-12T05:15:47.057Z,1006.68
2018-11-12T05:16:47.186Z,1006.69
2018-11-12T05:17:47.036Z,1006.63
2018-11-12T05:18:47.032Z,1006.61
2018-11-12T05:19:47.040Z,1006.55
2018-11-12T05:20:47.012Z,1006.55
2018-11-12T05:21:46.994Z,1006.55
2018-11-12T05:22:46.983Z,1006.55
2018-11-12T05:23:46.968Z,1006.52
2018-11-12T05:24:46.996Z,1006.50
2018-11-12T05:25:46.945Z,1006.49
2018-11-12T05:26:46.935Z,1006.48
2018-11-12T05:27:46.927Z,1006.47
2018-11-12T05:28:46.912Z,1006.43
2018-11-12T05:29:46.924Z,1006.42
2018-11-12T05:30:46.903Z,1006.37
2018-11-12T05:31:46.880Z,1006.34
2018-11-12T05:32:46.873Z,1006.38
2018-11-12T05:33:46.856Z,1006.34
2018-11-12T05:34:46.872Z,1006.31
2018-11-12T05:35:46.836Z,1006.32
2018-11-12T05:36:46.830Z,1006.28
2018-11-12T05:37:46.846Z,1006.30
2018-11-12T05:38:46.800Z,1006.24
2018-11-12T05:39:46.797Z,1006.21
2018-11-12T05:40:46.801Z,1006.24
2018-11-12T05:41:46.767Z,1006.25
2018-11-12T05:42:46.759Z,1006.23
2018-11-12T05:43:46.761Z,1006.23
2018-11-12T05:44:46.748Z,1006.18
2018-11-12T05:45:46.746Z,1006.17
2018-11-12T05:46:46.715Z,1006.22
2018-11-12T05:47:46.699Z,1006.24
2018-11-12T05:48:46.690Z,1006.19
2018-11-12T05:49:46.693Z,1006.24
2018-11-12T05:50:46.689Z,1006.24
2018-11-12T05:51:46.657Z,1006.24
2018-11-12T05:52:46.665Z,1006.27
2018-11-12T05:53:46.633Z,1006.29
2018-11-12T05:54:46.625Z,1006.32
2018-11-12T05:55:46.646Z,1006.39
2018-11-12T05:56:46.599Z,1006.40
2018-11-12T05:57:46.591Z,1006.38
2018-11-12T05:58:46.605Z,1006.34
2018-11-12T05:59:46.568Z,1006.34
2018-11-12T06:00:46.580Z,1006.38
2018-11-12T06:01:46.550Z,1006.40
2018-11-12T06:02:46.533Z,1006.44
2018-11-12T06:03:46.521Z,1006.45
2018-11-12T06:04:46.541Z,1006.45
2018-11-12T06:05:46.523Z,1006.43
2018-11-12T06:06:46.490Z,1006.49
2018-11-12T06:07:46.487Z,1006.47
2018-11-12T06:08:46.466Z,1006.49
2018-11-12T06:09:46.455Z,1006.51
2018-11-12T06:10:46.468Z,1006.46
2018-11-12T06:11:46.438Z,1006.43
2018-11-12T06:12:46.426Z,1006.46
2018-11-12T06:13:46.419Z,1006.40
2018-11-12T06:14:46.398Z,1006.47
2018-11-12T06:15:46.413Z,1006.44
2018-11-12T06:16:46.378Z,1006.37
2018-11-12T06:17:46.374Z,1006.37
2018-11-12T06:18:46.354Z,1006.36
2018-11-12T06:19:46.342Z,1006.36
2018-11-12T06:20:46.370Z,1006.38
2018-11-12T06:21:46.323Z,1006.35
2018-11-12T06:22:46.401Z,1006.38
2018-11-12T06:23:46.302Z,1006.37
2018-11-12T06:24:46.287Z,1006.38
2018-11-12T06:25:46.300Z,1006.33
2018-11-12T06:26:46.275Z,1006.36
2018-11-12T06:27:46.258Z,1006.42
2018-11-12T06:28:46.245Z,1006.41
2018-11-12T06:29:46.234Z,1006.39
2018-11-12T06:30:46.249Z,1006.38
2018-11-12T06:31:46.211Z,1006.28
2018-11-12T06:32:46.199Z,1006.20
2018-11-12T06:33:46.197Z,1006.18
2018-11-12T06:34:46.177Z,1006.15
2018-11-12T06:35:46.189Z,1006.21
2018-11-12T06:36:46.186Z,1006.17
2018-11-12T06:37:46.143Z,1006.15
2018-11-12T06:38:46.137Z,1006.22
2018-11-12T06:39:46.136Z,1006.21
2018-11-12T06:40:46.140Z,1006.18
2018-11-12T06:41:46.098Z,1006.18
2018-11-12T06:42:46.210Z,1006.15
2018-11-12T06:43:46.076Z,1006.10
2018-11-12T06:44:46.066Z,1006.12
2018-11-12T06:45:46.089Z,1006.12
2018-11-12T06:46:46.044Z,1006.11
2018-11-12T06:47:46.032Z,1006.10
2018-11-12T06:48:46.021Z,1006.09
2018-11-12T06:49:46.011Z,1006.12
2018-11-12T06:50:46.023Z,1006.10
2018-11-12T06:51:45.991Z,1006.09
2018-11-12T06:52:46.044Z,1006.07
2018-11-12T06:53:45.965Z,1006.10
2018-11-12T06:54:45.954Z,1006.06
2018-11-12T06:55:45.967Z,1006.15
2018-11-12T06:56:45.931Z,1006.10
2018-11-12T06:57:45.923Z,1006.14
2018-11-12T06:58:45.908Z,1006.14
2018-11-12T06:59:45.913Z,1006.12
2018-11-12T07:00:45.942Z,1006.18
2018-11-12T07:01:45.877Z,1006.15
2018-11-12T07:02:45.863Z,1006.13
2018-11-12T07:03:45.855Z,1006.09
2018-11-12T07:04:45.844Z,1006.11
2018-11-12T07:05:45.864Z,1006.09
2018-11-12T07:06:45.866Z,1006.07
2018-11-12T07:07:45.898Z,1006.07
2018-11-12T07:08:45.797Z,1006.05
2018-11-12T07:09:45.790Z,1006.03
2018-11-12T07:10:45.802Z,1005.97
2018-11-12T07:11:45.765Z,1005.97
2018-11-12T07:12:45.761Z,1005.90
2018-11-12T07:13:45.746Z,1005.92
2018-11-12T07:14:45.778Z,1005.92
2018-11-12T07:15:45.803Z,1005.86
2018-11-12T07:16:45.738Z,1005.85
2018-11-12T07:17:45.701Z,1005.86
2018-11-12T07:18:45.751Z,1005.91
2018-11-12T07:19:45.684Z,1005.89
2018-11-12T07:20:45.671Z,1005.87
2018-11-12T07:21:45.677Z,1005.79
2018-11-12T07:22:45.678Z,1005.75
2018-11-12T07:23:45.629Z,1005.72
2018-11-12T07:24:45.626Z,1005.74
2018-11-12T07:25:45.611Z,1005.75
2018-11-12T07:26:45.623Z,1005.69
2018-11-12T07:27:45.591Z,1005.75
2018-11-12T07:28:45.575Z,1005.70
2018-11-12T07:29:45.562Z,1005.66
2018-11-12T07:30:45.587Z,1005.70
2018-11-12T07:31:45.567Z,1005.75
2018-11-12T07:32:45.548Z,1005.77
2018-11-12T07:33:45.520Z,1005.76
2018-11-12T07:34:45.518Z,1005.83
2018-11-12T07:35:45.495Z,1005.79
2018-11-12T07:36:45.510Z,1005.75
2018-11-12T07:37:45.479Z,1005.72
2018-11-12T07:38:45.468Z,1005.74
2018-11-12T07:39:45.458Z,1005.79
2018-11-12T07:40:45.698Z,1005.74
2018-11-12T07:41:45.507Z,1005.74
2018-11-12T07:42:45.419Z,1005.70
2018-11-12T07:43:45.418Z,1005.73
2018-11-12T07:44:45.395Z,1005.70
2018-11-12T07:45:45.385Z,1005.64
2018-11-12T07:46:45.399Z,1005.63
2018-11-12T07:47:45.362Z,1005.62
2018-11-12T07:48:45.396Z,1005.57
2018-11-12T07:49:45.357Z,1005.57
2018-11-12T07:50:45.337Z,1005.62
2018-11-12T07:51:45.346Z,1005.59
2018-11-12T07:52:45.315Z,1005.65
2018-11-12T07:53:45.298Z,1005.57
2018-11-12T07:54:45.287Z,1005.61
2018-11-12T07:55:45.286Z,1005.58
2018-11-12T07:56:45.285Z,1005.60
2018-11-12T07:57:45.253Z,1005.65
2018-11-12T07:58:45.239Z,1005.79
2018-11-12T07:59:45.229Z,1005.77
2018-11-12T08:00:45.223Z,1005.76
2018-11-12T08:01:45.235Z,1005.75
2018-11-12T08:02:45.203Z,1005.73
2018-11-12T08:03:45.302Z,1005.74
2018-11-12T08:04:45.173Z,1005.69
2018-11-12T08:05:45.162Z,1005.70
2018-11-12T08:06:45.173Z,1005.79
2018-11-12T08:07:45.153Z,1005.81
2018-11-12T08:08:45.149Z,1005.83
2018-11-12T08:09:45.227Z,1005.80
2018-11-12T08:10:45.105Z,1005.79
2018-11-12T08:11:45.123Z,1005.76
2018-11-12T08:12:45.084Z,1005.78
2018-11-12T08:13:45.102Z,1005.74
2018-11-12T08:14:45.110Z,1005.73
2018-11-12T08:15:45.048Z,1005.73
2018-11-12T08:16:45.063Z,1005.74
2018-11-12T08:17:45.133Z,1005.70
2018-11-12T08:18:45.019Z,1005.71
2018-11-12T08:19:45.008Z,1005.73
2018-11-12T08:20:44.996Z,1005.75
2018-11-12T08:21:45.124Z,1005.72
2018-11-12T08:22:44.979Z,1005.76
2018-11-12T08:23:44.968Z,1005.76
2018-11-12T08:24:45.152Z,1005.73
2018-11-12T08:25:44.936Z,1005.73
2018-11-12T08:26:44.950Z,1005.72
2018-11-12T08:27:44.914Z,1005.71
2018-11-12T08:28:44.906Z,1005.69
2018-11-12T08:29:45.033Z,1005.69
2018-11-12T08:30:44.919Z,1005.61
2018-11-12T08:31:44.898Z,1005.61
2018-11-12T08:32:44.904Z,1005.61
2018-11-12T08:33:44.850Z,1005.65
2018-11-12T08:34:44.840Z,1005.60
2018-11-12T08:35:44.839Z,1005.59
2018-11-12T08:36:44.827Z,1005.60
2018-11-12T08:37:44.828Z,1005.60
2018-11-12T08:38:44.797Z,1005.56
2018-11-12T08:39:44.996Z,1005.60
2018-11-12T08:40:45.002Z,1005.58
2018-11-12T08:41:44.782Z,1005.57
2018-11-12T08:42:44.751Z,1005.55
2018-11-12T08:43:44.740Z,1005.52
2018-11-12T08:44:44.727Z,1005.43
2018-11-12T08:45:44.716Z,1005.47
2018-11-12T08:46:44.711Z,1005.44
2018-11-12T08:47:44.717Z,1005.45
2018-11-12T08:48:44.697Z,1005.45
2018-11-12T08:49:44.726Z,1005.49
2018-11-12T08:50:44.663Z,1005.44
2018-11-12T08:51:44.648Z,1005.46
2018-11-12T08:52:44.661Z,1005.53
2018-11-12T08:53:44.630Z,1005.52
2018-11-12T08:54:44.615Z,1005.56
2018-11-12T08:55:44.683Z,1005.54
2018-11-12T08:56:44.597Z,1005.52
2018-11-12T08:57:44.619Z,1005.55
2018-11-12T08:58:44.584Z,1005.52
2018-11-12T08:59:44.675Z,1005.56
2018-11-12T09:00:44.595Z,1005.57
2018-11-12T09:01:44.543Z,1005.55
2018-11-12T09:02:44.556Z,1005.65
2018-11-12T09:03:44.511Z,1005.62
2018-11-12T09:04:44.502Z,1005.67
2018-11-12T09:05:44.516Z,1005.64
2018-11-12T09:06:44.477Z,1005.64
2018-11-12T09:07:44.492Z,1005.63
2018-11-12T09:08:44.491Z,1005.61
2018-11-12T09:09:44.447Z,1005.61
2018-11-12T09:10:44.435Z,1005.60
2018-11-12T09:11:44.422Z,1005.66
2018-11-12T09:12:44.435Z,1005.60
2018-11-12T09:13:44.893Z,1005.65
2018-11-12T09:14:44.404Z,1005.64
2018-11-12T09:15:44.401Z,1005.63
2018-11-12T09:16:44.384Z,1005.65
2018-11-12T09:17:44.409Z,1005.65
2018-11-12T09:18:44.344Z,1005.66
2018-11-12T09:19:44.345Z,1005.67
2018-11-12T09:20:44.322Z,1005.71
2018-11-12T09:21:44.315Z,1005.73
2018-11-12T09:22:44.337Z,1005.77
2018-11-12T09:23:44.312Z,1005.82
2018-11-12T09:24:44.278Z,1005.75
2018-11-12T09:25:44.270Z,1005.81
2018-11-12T09:26:44.254Z,1005.83
2018-11-12T09:27:44.266Z,1005.81
2018-11-12T09:28:44.239Z,1005.75
2018-11-12T09:29:44.223Z,1005.74
2018-11-12T09:30:45.595Z,1005.74
2018-11-12T09:31:44.205Z,1005.73
2018-11-12T09:32:44.647Z,1005.75
2018-11-12T09:33:44.253Z,1005.75
2018-11-12T09:34:44.165Z,1005.75
2018-11-12T09:35:44.153Z,1005.71
2018-11-12T09:36:44.228Z,1005.75
2018-11-12T09:37:44.154Z,1005.73
2018-11-12T09:38:44.139Z,1005.74
2018-11-12T09:39:44.108Z,1005.77
2018-11-12T09:40:44.107Z,1005.78
2018-11-12T09:41:44.100Z,1005.82
2018-11-12T09:42:44.103Z,1005.81
2018-11-12T09:43:44.064Z,1005.78
2018-11-12T09:44:44.063Z,1005.74
2018-11-12T09:45:44.050Z,1005.72
2018-11-12T09:46:44.033Z,1005.77
2018-11-12T09:47:44.052Z,1005.83
2018-11-12T09:48:44.026Z,1005.77
2018-11-12T09:49:43.997Z,1005.66
2018-11-12T09:50:43.992Z,1005.79
2018-11-12T09:51:43.974Z,1005.75
2018-11-12T09:52:43.988Z,1005.79
2018-11-12T09:53:44.168Z,1005.80
2018-11-12T09:54:43.974Z,1005.75
2018-11-12T09:55:43.931Z,1005.73
2018-11-12T09:56:43.925Z,1005.76
2018-11-12T09:57:43.935Z,1005.73
2018-11-12T09:58:43.898Z,1005.71
2018-11-12T09:59:43.893Z,1005.74
2018-11-12T10:00:44.147Z,1005.74
2018-11-12T10:01:44.482Z,1005.75
2018-11-12T10:02:44.880Z,1005.72
2018-11-12T10:03:44.888Z,1005.75
2018-11-12T10:04:45.561Z,1005.72
2018-11-12T10:05:44.944Z,1005.73
2018-11-12T10:06:45.251Z,1005.71
2018-11-12T10:07:45.702Z,1005.66
2018-11-12T10:08:46.344Z,1005.68
2018-11-12T10:09:45.845Z,1005.66
2018-11-12T10:10:45.498Z,1005.76
2018-11-12T10:11:45.650Z,1005.76
2018-11-12T10:12:46.861Z,1005.75
2018-11-12T10:13:47.196Z,1005.77
2018-11-12T10:14:46.058Z,1005.77
2018-11-12T10:15:47.076Z,1005.74
2018-11-12T10:16:45.827Z,1005.76
2018-11-12T10:17:46.605Z,1005.81
2018-11-12T10:18:43.674Z,1005.82
2018-11-12T10:19:43.738Z,1005.84
2018-11-12T10:20:43.652Z,1005.80
2018-11-12T10:21:43.645Z,1005.87
2018-11-12T10:22:43.656Z,1005.82
2018-11-12T10:23:43.619Z,1005.87
2018-11-12T10:24:43.606Z,1005.88
2018-11-12T10:25:43.614Z,1005.86
2018-11-12T10:26:43.586Z,1005.93
2018-11-12T10:27:43.605Z,1005.92
2018-11-12T10:28:43.562Z,1005.91
2018-11-12T10:29:43.552Z,1005.97
2018-11-12T10:30:43.551Z,1005.95
2018-11-12T10:31:43.537Z,1005.91
2018-11-12T10:32:43.539Z,1005.91
2018-11-12T10:33:43.508Z,1005.89
2018-11-12T10:34:43.496Z,1006.02
2018-11-12T10:35:43.485Z,1005.97
2018-11-12T10:36:43.474Z,1005.96
2018-11-12T10:37:43.532Z,1005.90
2018-11-12T10:38:43.454Z,1005.92
2018-11-12T10:39:43.474Z,1005.92
2018-11-12T10:40:43.453Z,1005.88
2018-11-12T10:41:43.422Z,1005.86
2018-11-12T10:42:43.464Z,1005.86
2018-11-12T10:43:43.418Z,1005.87
2018-11-12T10:44:43.383Z,1005.87
2018-11-12T10:45:43.380Z,1005.80
2018-11-12T10:46:43.364Z,1005.85
2018-11-12T10:47:43.432Z,1005.79
2018-11-12T10:48:43.345Z,1005.86
2018-11-12T10:49:43.329Z,1005.77
2018-11-12T10:50:43.336Z,1005.76
2018-11-12T10:51:43.306Z,1005.67
2018-11-12T10:52:43.334Z,1005.81
2018-11-12T10:53:50.043Z,1005.81
2018-11-12T10:54:43.432Z,1005.77
2018-11-12T10:55:43.447Z,1005.71
2018-11-12T10:56:43.277Z,1005.73
2018-11-12T10:57:43.254Z,1005.76
2018-11-12T10:58:43.254Z,1005.70
2018-11-12T10:59:43.271Z,1005.82
2018-11-12T11:00:43.225Z,1005.76
2018-11-12T11:01:43.195Z,1005.78
2018-11-12T11:02:43.193Z,1005.81
2018-11-12T11:03:43.198Z,1005.86
2018-11-12T11:04:43.173Z,1005.84
2018-11-12T11:05:43.153Z,1005.85
2018-11-12T11:06:43.140Z,1005.76
2018-11-12T11:07:43.475Z,1005.83
2018-11-12T11:08:43.147Z,1005.83
2018-11-12T11:09:43.106Z,1005.91
2018-11-12T11:10:43.095Z,1005.89
2018-11-12T11:11:43.086Z,1005.87
2018-11-12T11:12:43.092Z,1005.84
2018-11-12T11:13:43.132Z,1005.82
2018-11-12T11:14:43.079Z,1005.73
2018-11-12T11:15:43.038Z,1005.72
2018-11-12T11:16:43.036Z,1005.83
2018-11-12T11:17:43.016Z,1005.75
2018-11-12T11:18:43.032Z,1005.91
2018-11-12T11:19:43.050Z,1005.85
2018-11-12T11:20:42.983Z,1005.84
2018-11-12T11:21:42.972Z,1005.86
2018-11-12T11:22:42.961Z,1005.91
2018-11-12T11:23:42.978Z,1005.91
2018-11-12T11:24:42.943Z,1005.91
2018-11-12T11:25:42.989Z,1006.01
2018-11-12T11:26:42.986Z,1005.99
2018-11-12T11:27:42.908Z,1006.02
2018-11-12T11:28:42.938Z,1006.00
2018-11-12T11:29:42.887Z,1006.02
2018-11-12T11:30:42.877Z,1006.03
2018-11-12T11:31:42.874Z,1006.06
2018-11-12T11:32:42.848Z,1006.08
2018-11-12T11:33:42.861Z,1006.04
2018-11-12T11:34:42.837Z,1006.12
2018-11-12T11:35:42.816Z,1006.12
2018-11-12T11:36:42.855Z,1006.24
2018-11-12T11:37:42.825Z,1006.17
2018-11-12T11:38:42.807Z,1006.17
2018-11-12T11:39:42.780Z,1006.10
2018-11-12T11:40:42.876Z,1006.16
2018-11-12T11:41:42.749Z,1006.16
2018-11-12T11:42:42.739Z,1006.16
2018-11-12T11:43:42.766Z,1006.12
2018-11-12T11:44:42.720Z,1006.13
2018-11-12T11:45:42.704Z,1006.10
2018-11-12T11:46:42.707Z,1006.21
2018-11-12T11:47:42.820Z,1006.17
2018-11-12T11:48:42.752Z,1006.15
2018-11-12T11:49:42.658Z,1006.16
2018-11-12T11:50:42.687Z,1006.13
2018-11-12T11:51:42.681Z,1006.10
2018-11-12T11:52:42.627Z,1006.13
2018-11-12T11:53:42.641Z,1006.11
2018-11-12T11:54:42.603Z,1006.04
2018-11-12T11:55:42.605Z,1006.10
2018-11-12T11:56:42.709Z,1006.06
2018-11-12T11:57:42.765Z,1005.99
2018-11-12T11:58:42.582Z,1006.03
2018-11-12T11:59:42.549Z,1006.01
2018-11-12T12:00:42.547Z,1006.00
2018-11-12T12:01:42.597Z,1006.10
2018-11-12T12:02:42.559Z,1006.15
2018-11-12T12:03:42.557Z,1006.08
2018-11-12T12:04:42.503Z,1006.01
2018-11-12T12:05:42.488Z,1005.98